Benton, Iowa
Current Conditions -  °F | °C
As of 10:35 PM on Friday 31 Oct 2014 (Local Time) from KCSQ Reporting Station
Clear Clear  
Wind Chill: 23°   Ceiling: Unl
Heat Index: 30°   Visibility: 10mi
Dew Point: 18°   Wind: 7mph
Humidity: 60%   Direction: 20°NNE
Pressure: 30.46"   Gusts: NA
Location:  40.7°N, 94.36°W
Report Text: KCSQ 010335Z AUTO 02006KT 10SM CLR M01/M08 A3046 RMK AO2
Loading
Personal Weather Stations






























Interactive Weather Map
Tropical Storm Tracking
New forecast layout! Learn more

10-Day Weather Forecast

Advertisements
Track Severe Weather on mobile